createdAt,value
2023-05-04T00:03:07.195Z,78.41
2023-05-04T00:08:09.033Z,78.73
2023-05-04T00:13:10.843Z,79.01
2023-05-04T00:18:12.645Z,78.53
2023-05-04T00:23:14.330Z,79.09
2023-05-04T00:28:15.985Z,79.38
2023-05-04T00:33:17.847Z,78.96
2023-05-04T00:38:19.529Z,79.02
2023-05-04T00:43:21.242Z,79.33
2023-05-04T00:48:23.335Z,79.25
2023-05-04T00:53:25.080Z,78.96
2023-05-04T00:58:26.737Z,79.17
2023-05-04T01:03:28.684Z,79.74
2023-05-04T01:08:39.397Z,79.31
2023-05-04T01:13:41.223Z,80.03
2023-05-04T01:18:42.892Z,79.74
2023-05-04T01:23:44.572Z,80.50
2023-05-04T01:28:46.152Z,81.34
2023-05-04T01:33:49.549Z,82.41
2023-05-04T01:38:55.257Z,82.65
2023-05-04T01:43:57.859Z,83.78
2023-05-04T01:49:01.595Z,83.36
2023-05-04T01:54:03.283Z,83.08
2023-05-04T01:59:05.901Z,83.49
2023-05-04T02:04:08.134Z,83.35
2023-05-04T02:09:09.941Z,83.35
2023-05-04T02:14:11.620Z,83.62
2023-05-04T02:19:13.272Z,83.64
2023-05-04T02:24:14.925Z,83.49
2023-05-04T02:29:16.517Z,83.13
2023-05-04T02:34:18.352Z,82.94
2023-05-04T02:39:22.814Z,83.13
2023-05-04T02:44:24.415Z,83.02
2023-05-04T02:49:26.682Z,83.34
2023-05-04T02:54:28.409Z,83.46
2023-05-04T02:59:30.012Z,83.96
2023-05-04T03:04:31.874Z,84.54
2023-05-04T03:09:33.547Z,84.26
2023-05-04T03:14:35.234Z,84.45
2023-05-04T03:19:37.296Z,83.61
2023-05-04T03:24:40.549Z,83.57
2023-05-04T03:29:42.591Z,84.34
2023-05-04T03:34:45.880Z,84.57
2023-05-04T03:39:48.541Z,84.49
2023-05-04T03:44:50.742Z,84.39
2023-05-04T03:49:52.619Z,84.10
2023-05-04T03:54:55.587Z,84.36
2023-05-04T03:59:58.015Z,84.63
2023-05-04T04:05:00.674Z,83.88
2023-05-04T04:10:03.357Z,83.88
2023-05-04T04:15:05.741Z,84.26
2023-05-04T04:20:09.004Z,83.80
2023-05-04T04:25:10.749Z,83.08
2023-05-04T04:30:13.560Z,83.12
2023-05-04T04:35:15.643Z,82.85
2023-05-04T04:40:18.124Z,81.64
2023-05-04T04:45:20.517Z,81.28
2023-05-04T04:50:22.576Z,80.70
2023-05-04T04:55:25.919Z,80.02
2023-05-04T05:00:27.697Z,79.80
2023-05-04T05:05:31.547Z,79.42
2023-05-04T05:10:33.555Z,76.79
2023-05-04T05:15:35.555Z,74.95
2023-05-04T05:20:37.214Z,72.67
2023-05-04T05:25:39.355Z,70.31
2023-05-04T05:30:41.099Z,68.56
2023-05-04T05:35:43.394Z,65.57
2023-05-04T05:40:45.062Z,64.07
2023-05-04T05:45:46.702Z,61.75
2023-05-04T05:50:48.342Z,62.05
2023-05-04T05:55:50.000Z,58.44
2023-05-04T06:00:51.627Z,58.49
2023-05-04T06:05:53.222Z,56.84
2023-05-04T06:10:56.412Z,55.38
2023-05-04T06:15:58.134Z,55.71
2023-05-04T06:21:00.698Z,56.44
2023-05-04T06:26:02.727Z,56.06
2023-05-04T06:31:04.474Z,54.00
2023-05-04T06:36:06.423Z,51.34
2023-05-04T06:41:08.138Z,50.06
2023-05-04T06:46:09.982Z,50.53
2023-05-04T06:51:11.655Z,49.76
2023-05-04T06:56:13.322Z,47.85
2023-05-04T07:01:16.903Z,46.27
2023-05-04T07:06:21.101Z,48.06
2023-05-04T07:11:23.536Z,47.02
2023-05-04T07:16:26.339Z,49.03
2023-05-04T07:21:29.485Z,47.70
2023-05-04T07:26:31.559Z,49.17
2023-05-04T07:31:33.796Z,48.62
2023-05-04T07:36:35.756Z,49.51
2023-05-04T07:41:37.746Z,46.63
2023-05-04T07:46:39.509Z,44.64
2023-05-04T07:51:41.480Z,45.14
2023-05-04T07:56:43.187Z,45.33
2023-05-04T08:01:44.889Z,47.32
2023-05-04T08:06:46.882Z,47.44
2023-05-04T08:11:50.382Z,44.86
2023-05-04T08:16:52.021Z,44.72
2023-05-04T08:21:53.771Z,45.53
2023-05-04T08:27:07.149Z,45.41
2023-05-04T08:32:10.105Z,44.49
2023-05-04T08:37:11.830Z,44.38
2023-05-04T08:42:13.499Z,43.14
2023-05-04T08:47:15.384Z,43.08
2023-05-04T08:52:17.746Z,42.77
2023-05-04T08:57:19.794Z,42.77
2023-05-04T09:02:23.409Z,42.56
2023-05-04T09:07:25.335Z,43.22
2023-05-04T09:12:27.866Z,42.72
2023-05-04T09:17:29.740Z,42.51
2023-05-04T09:22:31.515Z,42.96
2023-05-04T09:27:33.216Z,42.58
2023-05-04T09:32:48.522Z,43.48
2023-05-04T09:37:50.198Z,40.94
2023-05-04T09:42:56.854Z,41.15
2023-05-04T09:47:58.738Z,40.24
2023-05-04T09:53:00.962Z,39.26
2023-05-04T09:58:02.792Z,38.93
2023-05-04T10:03:06.344Z,39.87
2023-05-04T10:08:08.309Z,39.34
2023-05-04T10:13:10.198Z,39.37
2023-05-04T10:18:32.844Z,40.41
2023-05-04T10:24:30.584Z,40.00
2023-05-04T10:29:35.643Z,38.46
2023-05-04T10:34:37.451Z,38.90
2023-05-04T10:39:39.979Z,39.14
2023-05-04T10:44:55.110Z,37.04
2023-05-04T10:50:14.626Z,36.90
2023-05-04T10:55:17.426Z,37.06
2023-05-04T11:00:19.383Z,37.01
2023-05-04T11:05:21.037Z,39.66
2023-05-04T11:10:24.458Z,37.49
2023-05-04T11:15:26.200Z,37.16
2023-05-04T11:20:27.889Z,39.10
2023-05-04T11:25:30.652Z,38.77
2023-05-04T11:30:33.794Z,38.69
2023-05-04T11:35:35.424Z,36.07
2023-05-04T11:40:40.888Z,35.93
2023-05-04T11:45:42.734Z,36.31
2023-05-04T11:50:45.918Z,38.70
2023-05-04T11:55:47.610Z,36.68
2023-05-04T12:00:56.078Z,34.86
2023-05-04T12:05:58.782Z,34.67
2023-05-04T12:11:11.250Z,34.59
2023-05-04T12:16:20.457Z,34.60
2023-05-04T12:21:22.733Z,36.70
2023-05-04T12:26:24.604Z,36.15
2023-05-04T12:31:27.164Z,34.21
2023-05-04T12:36:28.957Z,33.71
2023-05-04T12:41:31.520Z,33.53
2023-05-04T12:46:33.304Z,33.54
2023-05-04T12:51:34.997Z,33.37
2023-05-04T12:56:37.309Z,33.73
2023-05-04T13:01:41.468Z,33.28
2023-05-04T13:06:43.235Z,33.46
2023-05-04T13:11:45.265Z,33.12
2023-05-04T13:16:48.032Z,32.76
2023-05-04T13:21:50.589Z,33.18
2023-05-04T13:26:52.231Z,32.79
2023-05-04T13:31:55.401Z,32.23
2023-05-04T13:36:57.164Z,32.52
2023-05-04T13:41:58.822Z,32.23
2023-05-04T13:47:02.173Z,33.34
2023-05-04T13:52:03.899Z,33.00
2023-05-04T13:57:05.569Z,33.02
2023-05-04T14:02:07.652Z,31.35
2023-05-04T14:07:12.045Z,30.92
2023-05-04T14:12:15.670Z,31.71
2023-05-04T14:17:17.630Z,30.92
2023-05-04T14:22:19.322Z,31.77
2023-05-04T14:27:21.131Z,31.96
2023-05-04T14:32:22.802Z,32.35
2023-05-04T14:37:24.441Z,32.18
2023-05-04T14:42:26.345Z,31.52
2023-05-04T14:47:29.053Z,31.85
2023-05-04T14:52:30.854Z,31.85
2023-05-04T14:57:33.212Z,32.56
2023-05-04T15:02:35.901Z,32.72
2023-05-04T15:07:37.896Z,32.13
2023-05-04T15:12:40.207Z,31.97
2023-05-04T15:17:42.066Z,32.36
2023-05-04T15:22:47.173Z,32.01
2023-05-04T15:27:48.767Z,32.33
2023-05-04T15:32:50.545Z,31.95
2023-05-04T15:37:52.780Z,32.51
2023-05-04T15:42:54.954Z,33.26
2023-05-04T15:47:59.399Z,32.81
2023-05-04T15:53:01.067Z,33.14
2023-05-04T15:58:03.081Z,33.94
2023-05-04T16:03:08.200Z,33.74
2023-05-04T16:08:09.960Z,34.23
2023-05-04T16:13:12.299Z,34.25
2023-05-04T16:18:14.057Z,33.74
2023-05-04T16:23:17.570Z,34.08
2023-05-04T16:28:19.222Z,34.23
2023-05-04T16:33:20.923Z,34.65
2023-05-04T16:38:22.554Z,35.17
2023-05-04T16:43:24.296Z,36.06
2023-05-04T16:48:25.964Z,37.29
2023-05-04T16:53:27.645Z,37.96
2023-05-04T16:58:29.518Z,40.07
2023-05-04T17:03:32.742Z,40.36
2023-05-04T17:08:35.017Z,40.88
2023-05-04T17:13:36.907Z,41.20
2023-05-04T17:18:38.573Z,41.03
2023-05-04T17:23:40.924Z,41.65
2023-05-04T17:28:42.899Z,41.51
2023-05-04T17:33:44.596Z,41.81
2023-05-04T17:38:46.299Z,42.15
2023-05-04T17:43:50.194Z,42.56
2023-05-04T17:48:53.186Z,42.71
2023-05-04T17:53:57.876Z,43.43
2023-05-04T17:58:59.578Z,43.57
2023-05-04T18:04:04.175Z,43.99
2023-05-04T18:09:06.097Z,44.31
2023-05-04T18:14:07.760Z,44.63
2023-05-04T18:19:09.503Z,44.67
2023-05-04T18:24:12.169Z,44.96
2023-05-04T18:29:18.899Z,45.22
2023-05-04T18:34:21.156Z,45.56
2023-05-04T18:39:22.807Z,46.17
2023-05-04T18:44:24.482Z,46.80
2023-05-04T18:49:26.138Z,47.29
2023-05-04T18:54:33.947Z,47.69
2023-05-04T18:59:36.308Z,48.28
2023-05-04T19:04:37.949Z,48.53
2023-05-04T19:09:39.819Z,48.93
2023-05-04T19:14:43.428Z,49.58
2023-05-04T19:19:45.112Z,49.62
2023-05-04T19:24:50.040Z,50.42
2023-05-04T19:29:51.681Z,50.15
2023-05-04T19:34:53.424Z,50.52
2023-05-04T19:39:55.097Z,50.85
2023-05-04T19:44:57.156Z,51.17
2023-05-04T19:49:58.950Z,51.67
2023-05-04T19:55:00.651Z,52.05
2023-05-04T20:00:03.062Z,52.76
2023-05-04T20:05:13.646Z,53.45
2023-05-04T20:10:15.322Z,53.63
2023-05-04T20:15:16.992Z,54.39
2023-05-04T20:20:20.451Z,55.80
2023-05-04T20:25:22.894Z,55.55
2023-05-04T20:30:28.079Z,55.71
2023-05-04T20:35:29.856Z,56.06
2023-05-04T20:40:32.167Z,56.23
2023-05-04T20:45:34.295Z,57.13
2023-05-04T20:50:36.006Z,57.95
2023-05-04T20:55:37.655Z,58.28
2023-05-04T21:00:40.096Z,58.60
2023-05-04T21:05:41.750Z,59.61
2023-05-04T21:10:43.395Z,59.50
2023-05-04T21:15:45.205Z,59.00
2023-05-04T21:20:47.119Z,58.91
2023-05-04T21:25:48.786Z,58.29
2023-05-04T21:30:50.455Z,57.71
2023-05-04T21:35:52.217Z,57.78
2023-05-04T21:40:53.836Z,59.23
2023-05-04T21:45:55.476Z,59.91
2023-05-04T21:50:57.231Z,61.14
2023-05-04T21:56:06.389Z,61.92
2023-05-04T22:01:08.715Z,63.33
2023-05-04T22:06:10.650Z,63.51
2023-05-04T22:11:12.302Z,64.58
2023-05-04T22:16:13.975Z,64.53
2023-05-04T22:21:15.763Z,65.18
2023-05-04T22:26:17.460Z,65.95
2023-05-04T22:31:19.325Z,65.40
2023-05-04T22:36:20.990Z,64.61
2023-05-04T22:41:22.718Z,64.50
2023-05-04T22:46:25.552Z,64.71
2023-05-04T22:51:30.376Z,65.79
2023-05-04T22:56:32.663Z,65.61
2023-05-04T23:01:34.401Z,66.87
2023-05-04T23:06:38.613Z,66.20
2023-05-04T23:11:40.693Z,67.01
2023-05-04T23:16:42.355Z,66.98
2023-05-04T23:21:43.991Z,68.09
2023-05-04T23:26:45.621Z,68.86
2023-05-04T23:31:47.324Z,68.73
2023-05-04T23:36:49.248Z,68.85
2023-05-04T23:41:50.931Z,68.52
2023-05-04T23:46:52.577Z,69.52
2023-05-04T23:51:54.215Z,70.24
2023-05-04T23:56:55.870Z,69.80
